Airfield :
LOGIN :

Register | Disclaimer

   EN    FR    IT 

 










Legend :    VFR   Marginal VFR   IFR   Intensive IFR   Very Intensive IFR
Visi :
Ceiling :
>= 8 km
>= 3000ft
5 to 8 km
1000 to 3000 ft
1500m to 5 km
500 to 1000 ft
800 to 1500m
200 to 500 ft
< 800m
< 200 ft
Symbols :   Thunderstorms  Fog  Heavy snow  Heavy precipitations  Wind > 20 kt
SIGMETs :     Misc.  Thunderstorms  Icing  Turbulence  Mountain Waves  Volcanic Ashes







- Airport Elevation : 7 ft
- IATA code : VCE


LIPZ - Marco Polo Int. Venezia

CURRENT METAR :
  • 200720Z 34010KT 320V100 CAVOK 21/13 Q1017 NOSIG

EXPIRED METARs :
  • 200650Z 35010KT 320V080 CAVOK 20/14 Q1017 NOSIG
  • 200620Z 32006KT 300V030 CAVOK 18/15 Q1017 NOSIG
  • 200550Z 31007KT CAVOK 17/14 Q1016 NOSIG
  • 200520Z 32007KT CAVOK 17/14 Q1016 NOSIG
  • 200450Z 34008KT 310V010 CAVOK 17/14 Q1016 NOSIG

TAF TAF LIPZ
Valid from the 20 at 06:00 until the 21 at 12:00 UTC


200500Z 2006/2112 04015KT 9999 SCT030
BECMG 2010/2013 10010KT
BECMG 2016/2018 02010KT
No reported NOTAMs for that airfield.
1 SIGMET reported for the Milano FIR (LIMM) :
 
Severe turbulence
LIMM SIGMET 2 VALID 200705/201105 LIMM- LIMM MILANO FIR SEV TURB FCST E OF LINE N4655 E01011 - N4326 E01216 FL270/380 MOV E WKN=



MET'MAP, your aeronautical weather chart ! - Copyright ORBIFLY December 2007 - Disclaimer

ORBIFLY MET'MAP TEAM :

Programming & Development : Alexandra Zaïnal
Concept & Development : Baudouin d'Aumeries
Co-Development & Prog : Marc-Olivier Méhu
Technical & hardware support : Manuel Goepfert

Contact : metmap@orbifly.com




SOURCES & CREDITS :

   NOAA